createdAt,value
2022-09-07T00:02:33.423Z,14.00
2022-09-07T00:06:55.654Z,14.00
2022-09-07T00:11:19.732Z,14.00
2022-09-07T00:15:41.552Z,13.90
2022-09-07T00:20:06.013Z,13.90
2022-09-07T00:24:27.972Z,13.90
2022-09-07T00:28:51.093Z,13.80
2022-09-07T00:33:13.033Z,13.70
2022-09-07T00:37:35.174Z,13.60
2022-09-07T00:41:57.073Z,13.50
2022-09-07T00:46:26.132Z,13.50
2022-09-07T00:50:56.172Z,13.50
2022-09-07T00:55:19.484Z,13.50
2022-09-07T00:59:50.532Z,13.50
2022-09-07T01:04:13.452Z,13.50
2022-09-07T01:08:36.153Z,13.40
2022-09-07T01:13:00.073Z,13.30
2022-09-07T01:17:37.273Z,13.30
2022-09-07T01:22:34.474Z,13.30
2022-09-07T01:27:47.174Z,13.40
2022-09-07T01:32:23.633Z,13.30
2022-09-07T01:37:05.215Z,13.30
2022-09-07T01:41:43.575Z,13.30
2022-09-07T01:46:30.559Z,13.30
2022-09-07T01:51:02.774Z,13.30
2022-09-07T01:55:46.812Z,13.30
2022-09-07T02:00:15.625Z,13.30
2022-09-07T02:05:03.459Z,13.30
2022-09-07T02:09:34.592Z,13.30
2022-09-07T02:14:34.200Z,13.40
2022-09-07T02:19:12.973Z,13.30
2022-09-07T02:24:00.172Z,13.30
2022-09-07T02:28:29.517Z,13.30
2022-09-07T02:32:51.813Z,13.30
2022-09-07T02:37:17.253Z,13.30
2022-09-07T02:41:44.793Z,13.40
2022-09-07T02:46:25.749Z,13.30
2022-09-07T02:51:20.733Z,13.30
2022-09-07T02:56:52.676Z,13.20
2022-09-07T03:02:11.215Z,13.10
2022-09-07T03:06:40.953Z,13.10
2022-09-07T03:11:05.513Z,13.00
2022-09-07T03:15:28.568Z,12.90
2022-09-07T03:19:50.712Z,12.90
2022-09-07T03:24:12.874Z,13.00
2022-09-07T03:28:35.098Z,12.90
2022-09-07T03:32:56.974Z,12.90
2022-09-07T03:37:18.833Z,12.90
2022-09-07T03:41:40.793Z,12.80
2022-09-07T03:46:06.493Z,12.80
2022-09-07T03:50:29.335Z,12.80
2022-09-07T03:54:51.463Z,12.90
2022-09-07T03:59:13.753Z,13.00
2022-09-07T04:03:36.973Z,13.00
2022-09-07T04:07:59.154Z,13.00
2022-09-07T04:12:21.233Z,13.00
2022-09-07T04:16:45.626Z,13.00
2022-09-07T04:21:07.959Z,13.10
2022-09-07T04:25:30.486Z,13.30
2022-09-07T04:29:52.863Z,13.30
2022-09-07T04:34:15.480Z,13.50
2022-09-07T04:38:37.784Z,13.50
2022-09-07T04:43:00.045Z,13.60
2022-09-07T04:47:22.544Z,13.70
2022-09-07T04:51:44.943Z,13.70
2022-09-07T04:56:07.584Z,13.90
2022-09-07T05:00:30.044Z,14.90
2022-09-07T05:04:52.564Z,15.40
2022-09-07T05:09:14.885Z,15.40
2022-09-07T05:13:37.328Z,15.20
2022-09-07T05:17:59.844Z,15.10
2022-09-07T05:22:22.864Z,15.20
2022-09-07T05:26:45.257Z,15.50
2022-09-07T05:35:36.887Z,16.70
2022-09-07T05:39:59.368Z,17.30
2022-09-07T05:49:05.106Z,17.30
2022-09-07T05:53:28.087Z,17.60
2022-09-07T05:57:50.625Z,18.30
2022-09-07T06:02:15.579Z,19.90
2022-09-07T06:06:39.388Z,22.60
2022-09-07T06:11:11.033Z,24.90
2022-09-07T06:15:34.405Z,26.80
2022-09-07T06:19:57.466Z,28.00
2022-09-07T06:24:19.851Z,29.80
2022-09-07T06:28:48.908Z,32.30
2022-09-07T06:33:11.890Z,35.10
2022-09-07T06:37:34.451Z,37.70
2022-09-07T06:51:20.091Z,39.80
2022-09-07T06:55:45.794Z,39.80
2022-09-07T07:00:08.647Z,40.00
2022-09-07T07:04:32.390Z,38.80
2022-09-07T07:08:56.469Z,37.50
2022-09-07T07:17:41.030Z,42.80
2022-09-07T07:26:48.912Z,43.00
2022-09-07T07:31:13.330Z,40.20
2022-09-07T07:35:35.864Z,41.80
2022-09-07T07:44:36.103Z,45.50
2022-09-07T07:48:59.064Z,45.50
2022-09-07T07:58:05.290Z,41.00
2022-09-07T08:02:27.910Z,38.60
2022-09-07T08:06:50.530Z,37.80
2022-09-07T08:11:17.829Z,38.10
2022-09-07T08:15:46.892Z,40.70
2022-09-07T08:20:10.189Z,40.90
2022-09-07T08:24:33.030Z,38.20
2022-09-07T08:28:55.743Z,35.80
2022-09-07T08:33:18.122Z,34.40
2022-09-07T08:37:40.531Z,35.50
2022-09-07T08:42:43.242Z,34.30
2022-09-07T08:47:37.711Z,32.80
2022-09-07T08:52:26.059Z,31.80
2022-09-07T09:01:42.510Z,29.90
2022-09-07T09:06:42.017Z,29.50
2022-09-07T09:11:44.796Z,28.90
2022-09-07T09:16:35.811Z,29.00
2022-09-07T09:21:00.444Z,30.20
2022-09-07T09:25:31.910Z,32.70
2022-09-07T09:29:54.630Z,34.90
2022-09-07T09:34:23.910Z,37.90
2022-09-07T09:38:47.730Z,40.50
2022-09-07T09:43:24.190Z,41.90
2022-09-07T09:47:53.183Z,43.40
2022-09-07T09:52:30.222Z,45.20
2022-09-07T09:56:53.910Z,42.80
2022-09-07T10:01:31.063Z,40.30
2022-09-07T10:05:54.770Z,38.80
2022-09-07T10:10:17.474Z,37.60
2022-09-07T10:14:44.629Z,38.60
2022-09-07T10:19:21.590Z,40.80
2022-09-07T10:23:44.082Z,39.50
2022-09-07T10:28:16.071Z,36.60
2022-09-07T10:33:06.885Z,35.50
2022-09-07T10:37:56.444Z,36.40
2022-09-07T10:42:38.850Z,38.50
2022-09-07T10:47:43.870Z,38.50
2022-09-07T10:52:49.620Z,40.10
2022-09-07T10:59:01.515Z,38.80
2022-09-07T11:04:04.753Z,36.70
2022-09-07T11:14:01.751Z,36.60
2022-09-07T11:18:33.731Z,37.20
2022-09-07T11:23:15.122Z,38.60
2022-09-07T11:27:56.798Z,38.60
2022-09-07T11:32:31.532Z,35.50
2022-09-07T11:37:21.193Z,33.40
2022-09-07T11:47:34.282Z,33.80
2022-09-07T11:52:05.569Z,32.60
2022-09-07T11:56:36.892Z,31.40
2022-09-07T12:01:10.809Z,31.30
2022-09-07T12:05:43.331Z,31.40
2022-09-07T12:10:39.741Z,31.30
2022-09-07T12:15:35.536Z,31.00
2022-09-07T12:20:24.151Z,30.30
2022-09-07T12:24:53.782Z,30.10
2022-09-07T12:29:24.332Z,29.90
2022-09-07T12:33:46.814Z,29.70
2022-09-07T12:38:17.589Z,29.30
2022-09-07T12:42:40.030Z,29.20
2022-09-07T12:47:12.890Z,29.20
2022-09-07T12:56:37.130Z,29.10
2022-09-07T13:01:19.671Z,28.90
2022-09-07T13:11:36.029Z,29.00
2022-09-07T13:16:07.756Z,29.20
2022-09-07T13:20:36.150Z,29.60
2022-09-07T13:25:28.635Z,29.40
2022-09-07T13:30:16.504Z,29.50
2022-09-07T13:35:06.010Z,29.40
2022-09-07T13:39:41.217Z,29.50
2022-09-07T13:44:06.188Z,29.40
2022-09-07T13:48:52.710Z,29.30
2022-09-07T13:53:42.549Z,29.30
2022-09-07T13:58:38.616Z,29.20
2022-09-07T14:03:07.359Z,29.00
2022-09-07T14:07:31.761Z,28.60
2022-09-07T14:11:55.158Z,28.50
2022-09-07T14:16:17.778Z,28.30
2022-09-07T14:20:52.769Z,28.30
2022-09-07T14:25:22.976Z,28.30
2022-09-07T14:29:45.430Z,28.20
2022-09-07T14:34:09.900Z,28.20
2022-09-07T14:43:35.250Z,28.40
2022-09-07T14:47:57.751Z,28.60
2022-09-07T14:52:30.012Z,28.70
2022-09-07T14:57:30.676Z,28.50
2022-09-07T15:02:18.909Z,28.30
2022-09-07T15:11:33.495Z,28.20
2022-09-07T15:16:03.804Z,28.50
2022-09-07T15:20:44.421Z,29.00
2022-09-07T15:25:08.716Z,29.30
2022-09-07T15:29:31.608Z,28.20
2022-09-07T15:33:54.330Z,27.60
2022-09-07T15:43:11.467Z,26.60
2022-09-07T15:47:43.544Z,26.20
2022-09-07T15:52:09.748Z,25.80
2022-09-07T15:56:32.191Z,25.70
2022-09-07T16:01:51.580Z,25.60
2022-09-07T16:05:40.389Z,25.40
2022-09-07T16:10:05.067Z,25.10
2022-09-07T16:14:27.383Z,24.80
2022-09-07T16:18:50.153Z,24.70
2022-09-07T16:23:15.592Z,24.60
2022-09-07T16:27:41.256Z,24.50
2022-09-07T16:36:50.192Z,24.30
2022-09-07T16:41:27.363Z,24.20
2022-09-07T16:46:05.531Z,24.10
2022-09-07T16:50:27.613Z,24.00
2022-09-07T16:54:53.484Z,23.80
2022-09-07T16:59:17.549Z,23.70
2022-09-07T17:03:40.670Z,23.50
2022-09-07T17:08:04.181Z,23.40
2022-09-07T17:12:26.930Z,23.20
2022-09-07T17:16:49.682Z,23.10
2022-09-07T17:21:12.371Z,23.00
2022-09-07T17:25:34.782Z,22.90
2022-09-07T17:29:57.469Z,22.80
2022-09-07T17:34:20.310Z,22.70
2022-09-07T17:43:45.410Z,22.70
2022-09-07T17:48:08.109Z,22.60
2022-09-07T17:52:31.909Z,22.40
2022-09-07T17:56:54.612Z,22.20
2022-09-07T18:01:20.630Z,22.00
2022-09-07T18:05:43.279Z,22.00
2022-09-07T18:10:05.931Z,21.90
2022-09-07T18:14:30.386Z,21.80
2022-09-07T18:18:54.291Z,21.70
2022-09-07T18:23:17.070Z,21.60
2022-09-07T18:27:40.445Z,21.70
2022-09-07T18:32:09.516Z,21.70
2022-09-07T18:36:32.349Z,21.70
2022-09-07T18:41:09.289Z,21.60
2022-09-07T18:45:31.791Z,21.60
2022-09-07T18:49:55.051Z,21.50
2022-09-07T18:54:17.711Z,21.40
2022-09-07T18:58:42.185Z,21.30
2022-09-07T19:03:05.090Z,21.30
2022-09-07T19:07:29.841Z,21.20
2022-09-07T19:11:52.349Z,21.20
2022-09-07T19:16:19.626Z,21.20
2022-09-07T19:20:42.070Z,21.20
2022-09-07T19:25:06.371Z,21.10
2022-09-07T19:29:29.622Z,21.10
2022-09-07T19:34:03.407Z,21.00
2022-09-07T19:38:25.618Z,20.90
2022-09-07T19:42:47.992Z,20.70
2022-09-07T19:47:10.731Z,20.70
2022-09-07T19:51:36.728Z,20.60
2022-09-07T19:56:13.295Z,20.40
2022-09-07T20:00:38.404Z,20.40
2022-09-07T20:05:00.725Z,20.30
2022-09-07T20:09:23.232Z,20.10
2022-09-07T20:13:46.270Z,20.00
2022-09-07T20:18:08.785Z,20.00
2022-09-07T20:22:34.522Z,19.80
2022-09-07T20:26:56.710Z,19.70
2022-09-07T20:31:19.325Z,19.50
2022-09-07T20:35:43.930Z,19.40
2022-09-07T20:40:07.520Z,19.20
2022-09-07T20:44:30.151Z,19.10
2022-09-07T20:48:52.570Z,19.00
2022-09-07T20:53:15.634Z,18.80
2022-09-07T20:57:38.291Z,18.70
2022-09-07T21:02:00.541Z,18.60
2022-09-07T21:06:25.630Z,18.60
2022-09-07T21:10:48.531Z,18.50
2022-09-07T21:15:11.094Z,18.40
2022-09-07T21:19:33.891Z,18.30
2022-09-07T21:24:03.451Z,18.20
2022-09-07T21:28:27.763Z,18.10
2022-09-07T21:32:52.464Z,18.00
2022-09-07T21:37:15.052Z,17.90
2022-09-07T21:41:38.152Z,17.80
2022-09-07T21:46:09.916Z,17.70
2022-09-07T21:50:32.410Z,17.60
2022-09-07T21:54:55.430Z,17.50
2022-09-07T21:59:20.390Z,17.50
2022-09-07T22:03:46.646Z,17.50
2022-09-07T22:08:10.426Z,17.60
2022-09-07T22:12:32.805Z,17.40
2022-09-07T22:16:55.486Z,17.30
2022-09-07T22:21:23.085Z,17.20
2022-09-07T22:25:53.459Z,17.10
2022-09-07T22:30:15.986Z,16.90
2022-09-07T22:34:38.367Z,16.70
2022-09-07T22:39:06.670Z,16.60
2022-09-07T22:43:29.395Z,16.50
2022-09-07T22:47:52.005Z,16.40
2022-09-07T22:52:14.826Z,16.30
2022-09-07T22:56:38.565Z,16.20
2022-09-07T23:01:01.325Z,16.10
2022-09-07T23:05:23.525Z,16.00
2022-09-07T23:09:46.005Z,16.00
2022-09-07T23:14:19.966Z,16.00
2022-09-07T23:18:49.549Z,16.00
2022-09-07T23:23:13.644Z,16.00
2022-09-07T23:27:36.993Z,15.90
2022-09-07T23:31:59.405Z,15.80
2022-09-07T23:36:22.265Z,15.70
2022-09-07T23:40:44.686Z,15.60
2022-09-07T23:45:09.005Z,15.60
2022-09-07T23:49:31.625Z,15.60
2022-09-07T23:53:54.166Z,15.60
2022-09-07T23:58:17.366Z,15.60
